sensor_id;sensor_type;location;lat;lon;timestamp;pressure;altitude;pressure_sealevel;temperature;humidity
4022;BME280;2025;48.260;16.432;2023-04-08T00:00:57;99968.22;;;2.81;87.34
4022;BME280;2025;48.260;16.432;2023-04-08T00:03:24;99970.09;;;2.79;87.47
4022;BME280;2025;48.260;16.432;2023-04-08T00:05:51;99968.31;;;2.80;87.58
4022;BME280;2025;48.260;16.432;2023-04-08T00:08:18;99973.16;;;2.73;87.47
4022;BME280;2025;48.260;16.432;2023-04-08T00:10:45;99969.72;;;2.72;87.82
4022;BME280;2025;48.260;16.432;2023-04-08T00:13:13;99982.22;;;2.67;87.91
4022;BME280;2025;48.260;16.432;2023-04-08T00:15:40;99977.75;;;2.69;88.05
4022;BME280;2025;48.260;16.432;2023-04-08T00:18:08;99980.78;;;2.63;87.91
4022;BME280;2025;48.260;16.432;2023-04-08T00:20:35;99974.03;;;2.49;87.55
4022;BME280;2025;48.260;16.432;2023-04-08T00:23:02;99967.59;;;2.42;87.91
4022;BME280;2025;48.260;16.432;2023-04-08T00:25:29;99976.91;;;2.34;87.92
4022;BME280;2025;48.260;16.432;2023-04-08T00:27:56;99977.84;;;2.32;88.20
4022;BME280;2025;48.260;16.432;2023-04-08T00:30:25;99972.63;;;2.32;88.35
4022;BME280;2025;48.260;16.432;2023-04-08T00:32:53;99978.28;;;2.26;87.80
4022;BME280;2025;48.260;16.432;2023-04-08T00:35:20;99979.53;;;2.21;88.19
4022;BME280;2025;48.260;16.432;2023-04-08T00:37:47;99978.72;;;2.20;88.56
4022;BME280;2025;48.260;16.432;2023-04-08T00:40:14;99981.75;;;2.14;88.13
4022;BME280;2025;48.260;16.432;2023-04-08T00:42:41;99982.69;;;2.13;88.55
4022;BME280;2025;48.260;16.432;2023-04-08T00:45:09;99982.59;;;2.15;88.60
4022;BME280;2025;48.260;16.432;2023-04-08T00:47:37;99987.72;;;2.03;88.03
4022;BME280;2025;48.260;16.432;2023-04-08T00:50:07;99987.44;;;1.95;88.52
4022;BME280;2025;48.260;16.432;2023-04-08T00:52:35;99989.81;;;1.98;88.69
4022;BME280;2025;48.260;16.432;2023-04-08T00:55:02;99993.97;;;2.01;88.97
4022;BME280;2025;48.260;16.432;2023-04-08T00:57:29;99992.31;;;2.00;88.56
4022;BME280;2025;48.260;16.432;2023-04-08T00:59:56;99993.75;;;1.91;88.40
4022;BME280;2025;48.260;16.432;2023-04-08T01:02:30;99991.84;;;1.82;88.47
4022;BME280;2025;48.260;16.432;2023-04-08T01:05:05;99998.06;;;1.79;89.00
4022;BME280;2025;48.260;16.432;2023-04-08T01:07:34;99996.00;;;1.84;89.24
4022;BME280;2025;48.260;16.432;2023-04-08T01:10:05;99997.03;;;1.82;88.79
4022;BME280;2025;48.260;16.432;2023-04-08T01:12:39;99993.00;;;1.78;88.63
4022;BME280;2025;48.260;16.432;2023-04-08T01:15:10;99996.31;;;1.67;88.75
4022;BME280;2025;48.260;16.432;2023-04-08T01:17:38;99990.09;;;1.69;88.85
4022;BME280;2025;48.260;16.432;2023-04-08T01:20:08;99987.63;;;1.68;88.82
4022;BME280;2025;48.260;16.432;2023-04-08T01:22:47;99987.72;;;1.66;88.95
4022;BME280;2025;48.260;16.432;2023-04-08T01:25:22;99989.97;;;1.71;89.27
4022;BME280;2025;48.260;16.432;2023-04-08T01:27:52;99991.75;;;1.71;88.87
4022;BME280;2025;48.260;16.432;2023-04-08T01:30:23;99994.25;;;1.59;89.02
4022;BME280;2025;48.260;16.432;2023-04-08T01:32:52;99988.84;;;1.62;89.06
4022;BME280;2025;48.260;16.432;2023-04-08T01:35:20;99991.84;;;1.69;89.05
4022;BME280;2025;48.260;16.432;2023-04-08T01:37:48;99985.72;;;1.70;88.64
4022;BME280;2025;48.260;16.432;2023-04-08T01:40:16;99984.78;;;1.58;88.58
4022;BME280;2025;48.260;16.432;2023-04-08T01:42:44;99985.44;;;1.49;89.13
4022;BME280;2025;48.260;16.432;2023-04-08T01:45:14;99995.13;;;1.47;89.35
4022;BME280;2025;48.260;16.432;2023-04-08T01:47:43;99996.03;;;1.46;89.34
4022;BME280;2025;48.260;16.432;2023-04-08T01:50:13;99993.53;;;1.44;89.40
4022;BME280;2025;48.260;16.432;2023-04-08T01:52:44;99996.97;;;1.45;89.39
4022;BME280;2025;48.260;16.432;2023-04-08T01:55:11;99990.84;;;1.46;89.48
4022;BME280;2025;48.260;16.432;2023-04-08T01:57:40;99993.16;;;1.38;89.31
4022;BME280;2025;48.260;16.432;2023-04-08T02:00:11;99990.66;;;1.36;89.43
4022;BME280;2025;48.260;16.432;2023-04-08T02:02:41;99990.56;;;1.38;88.92
4022;BME280;2025;48.260;16.432;2023-04-08T02:05:08;100004.25;;;1.27;89.06
4022;BME280;2025;48.260;16.432;2023-04-08T02:07:35;99994.69;;;1.15;89.18
4022;BME280;2025;48.260;16.432;2023-04-08T02:10:03;99997.78;;;1.07;89.32
4022;BME280;2025;48.260;16.432;2023-04-08T02:12:30;99998.22;;;1.01;89.08
4022;BME280;2025;48.260;16.432;2023-04-08T02:14:58;100002.44;;;0.89;89.01
4022;BME280;2025;48.260;16.432;2023-04-08T02:17:30;100000.59;;;0.91;89.08
4022;BME280;2025;48.260;16.432;2023-04-08T02:20:05;100009.06;;;0.80;88.97
4022;BME280;2025;48.260;16.432;2023-04-08T02:22:38;100012.03;;;0.74;89.08
4022;BME280;2025;48.260;16.432;2023-04-08T02:25:10;100011.00;;;0.64;89.18
4022;BME280;2025;48.260;16.432;2023-04-08T02:27:39;100009.53;;;0.60;89.13
4022;BME280;2025;48.260;16.432;2023-04-08T02:30:07;100008.56;;;0.48;89.17
4022;BME280;2025;48.260;16.432;2023-04-08T02:32:36;100004.41;;;0.46;89.43
4022;BME280;2025;48.260;16.432;2023-04-08T02:35:05;100006.56;;;0.39;89.38
4022;BME280;2025;48.260;16.432;2023-04-08T02:37:33;100018.97;;;0.34;89.22
4022;BME280;2025;48.260;16.432;2023-04-08T02:40:00;100017.63;;;0.28;89.43
4022;BME280;2025;48.260;16.432;2023-04-08T02:42:27;100018.28;;;0.17;89.46
4022;BME280;2025;48.260;16.432;2023-04-08T02:44:55;100019.84;;;0.20;89.58
4022;BME280;2025;48.260;16.432;2023-04-08T02:47:22;100015.59;;;0.19;89.71
4022;BME280;2025;48.260;16.432;2023-04-08T02:49:49;100013.31;;;0.14;89.38
4022;BME280;2025;48.260;16.432;2023-04-08T02:52:19;100016.91;;;0.12;89.75
4022;BME280;2025;48.260;16.432;2023-04-08T02:54:47;100010.16;;;0.09;89.48
4022;BME280;2025;48.260;16.432;2023-04-08T02:57:13;100018.78;;;0.10;89.50
4022;BME280;2025;48.260;16.432;2023-04-08T02:59:41;100024.78;;;0.10;89.65
4022;BME280;2025;48.260;16.432;2023-04-08T03:02:08;100021.66;;;0.05;89.69
4022;BME280;2025;48.260;16.432;2023-04-08T03:04:35;100016.06;;;0.11;89.46
4022;BME280;2025;48.260;16.432;2023-04-08T03:07:02;100026.72;;;0.07;89.77
4022;BME280;2025;48.260;16.432;2023-04-08T03:09:31;100026.63;;;0.08;89.58
4022;BME280;2025;48.260;16.432;2023-04-08T03:11:58;100022.66;;;0.03;89.81
4022;BME280;2025;48.260;16.432;2023-04-08T03:14:25;100017.28;;;0.06;89.84
4022;BME280;2025;48.260;16.432;2023-04-08T03:16:52;100021.66;;;0.05;89.98
4022;BME280;2025;48.260;16.432;2023-04-08T03:19:19;100032.19;;;0.02;89.86
4022;BME280;2025;48.260;16.432;2023-04-08T03:21:46;100022.97;;;-0.02;89.74
4022;BME280;2025;48.260;16.432;2023-04-08T03:24:13;100016.09;;;-0.03;90.28
4022;BME280;2025;48.260;16.432;2023-04-08T03:26:41;100025.34;;;0.01;90.31
4022;BME280;2025;48.260;16.432;2023-04-08T03:29:08;100027.56;;;0.07;89.98
4022;BME280;2025;48.260;16.432;2023-04-08T03:31:35;100018.03;;;0.08;89.86
4022;BME280;2025;48.260;16.432;2023-04-08T03:34:02;100031.16;;;0.05;90.09
4022;BME280;2025;48.260;16.432;2023-04-08T03:36:29;100028.75;;;0.02;90.00
4022;BME280;2025;48.260;16.432;2023-04-08T03:38:56;100021.94;;;0.01;90.30
4022;BME280;2025;48.260;16.432;2023-04-08T03:41:23;100028.97;;;-0.02;90.08
4022;BME280;2025;48.260;16.432;2023-04-08T03:43:52;100030.81;;;-0.04;90.37
4022;BME280;2025;48.260;16.432;2023-04-08T03:46:19;100036.94;;;-0.05;90.29
4022;BME280;2025;48.260;16.432;2023-04-08T03:48:47;100036.94;;;-0.05;89.92
4022;BME280;2025;48.260;16.432;2023-04-08T03:51:14;100031.56;;;-0.02;90.38
4022;BME280;2025;48.260;16.432;2023-04-08T03:53:40;100023.97;;;-0.05;90.03
4022;BME280;2025;48.260;16.432;2023-04-08T03:56:07;100029.31;;;-0.08;90.17
4022;BME280;2025;48.260;16.432;2023-04-08T03:58:34;100032.56;;;-0.04;90.41
4022;BME280;2025;48.260;16.432;2023-04-08T04:01:03;100031.28;;;-0.11;90.20
4022;BME280;2025;48.260;16.432;2023-04-08T04:03:30;100036.47;;;-0.11;90.27
4022;BME280;2025;48.260;16.432;2023-04-08T04:05:57;100043.84;;;-0.05;90.66
4022;BME280;2025;48.260;16.432;2023-04-08T04:08:24;100042.28;;;-0.08;90.58
4022;BME280;2025;48.260;16.432;2023-04-08T04:10:51;100046.34;;;-0.04;90.56
4022;BME280;2025;48.260;16.432;2023-04-08T04:13:18;100054.66;;;0.02;90.55
4022;BME280;2025;48.260;16.432;2023-04-08T04:15:46;100052.59;;;0.07;90.51
4022;BME280;2025;48.260;16.432;2023-04-08T04:18:14;100055.41;;;0.04;90.35
4022;BME280;2025;48.260;16.432;2023-04-08T04:20:42;100059.63;;;0.05;90.64
4022;BME280;2025;48.260;16.432;2023-04-08T04:23:09;100057.91;;;0.05;90.51
4022;BME280;2025;48.260;16.432;2023-04-08T04:25:36;100056.22;;;0.04;90.72
4022;BME280;2025;48.260;16.432;2023-04-08T04:28:04;100056.22;;;0.04;90.84
4022;BME280;2025;48.260;16.432;2023-04-08T04:30:31;100055.03;;;0.10;90.65
4022;BME280;2025;48.260;16.432;2023-04-08T04:32:58;100059.19;;;0.12;90.95
4022;BME280;2025;48.260;16.432;2023-04-08T04:35:26;100055.47;;;0.16;90.48
4022;BME280;2025;48.260;16.432;2023-04-08T04:37:53;100060.19;;;0.24;90.83
4022;BME280;2025;48.260;16.432;2023-04-08T04:40:20;100062.94;;;0.35;90.53
4022;BME280;2025;48.260;16.432;2023-04-08T04:42:46;100064.88;;;0.32;90.38
4022;BME280;2025;48.260;16.432;2023-04-08T04:45:13;100069.03;;;0.34;90.36
4022;BME280;2025;48.260;16.432;2023-04-08T04:47:40;100058.50;;;0.37;90.72
4022;BME280;2025;48.260;16.432;2023-04-08T04:50:07;100069.41;;;0.43;90.24
4022;BME280;2025;48.260;16.432;2023-04-08T04:52:36;100072.91;;;0.41;90.30
4022;BME280;2025;48.260;16.432;2023-04-08T04:55:04;100076.22;;;0.44;90.80
4022;BME280;2025;48.260;16.432;2023-04-08T04:57:31;100071.16;;;0.42;90.76
4022;BME280;2025;48.260;16.432;2023-04-08T04:59:57;100067.09;;;0.38;90.87
4022;BME280;2025;48.260;16.432;2023-04-08T05:02:25;100081.69;;;0.39;90.50
4022;BME280;2025;48.260;16.432;2023-04-08T05:04:52;100080.13;;;0.36;90.63
4022;BME280;2025;48.260;16.432;2023-04-08T05:07:20;100074.75;;;0.39;90.36
4022;BME280;2025;48.260;16.432;2023-04-08T05:09:48;100084.13;;;0.42;90.41
4022;BME280;2025;48.260;16.432;2023-04-08T05:12:15;100086.53;;;0.31;90.28
4022;BME280;2025;48.260;16.432;2023-04-08T05:14:45;100096.03;;;0.30;91.10
4022;BME280;2025;48.260;16.432;2023-04-08T05:17:12;100094.84;;;0.36;91.08
4022;BME280;2025;48.260;16.432;2023-04-08T05:19:39;100099.75;;;0.40;90.99
4022;BME280;2025;48.260;16.432;2023-04-08T05:22:06;100108.06;;;0.46;91.36
4022;BME280;2025;48.260;16.432;2023-04-08T05:24:33;100104.84;;;0.42;91.37
4022;BME280;2025;48.260;16.432;2023-04-08T05:27:02;100103.81;;;0.45;91.15
4022;BME280;2025;48.260;16.432;2023-04-08T05:29:29;100110.44;;;0.49;91.21
4022;BME280;2025;48.260;16.432;2023-04-08T05:31:56;100105.84;;;0.54;91.62
4022;BME280;2025;48.260;16.432;2023-04-08T05:34:23;100108.03;;;0.60;91.43
4022;BME280;2025;48.260;16.432;2023-04-08T05:36:50;100111.16;;;0.65;91.49
4022;BME280;2025;48.260;16.432;2023-04-08T05:39:17;100117.19;;;0.66;91.51
4022;BME280;2025;48.260;16.432;2023-04-08T05:41:44;100119.50;;;0.70;91.64
4022;BME280;2025;48.260;16.432;2023-04-08T05:44:13;100119.75;;;0.80;91.07
4022;BME280;2025;48.260;16.432;2023-04-08T05:46:40;100118.91;;;0.79;91.23
4022;BME280;2025;48.260;16.432;2023-04-08T05:49:07;100124.72;;;0.83;90.96
4022;BME280;2025;48.260;16.432;2023-04-08T05:51:34;100125.09;;;0.77;90.80
4022;BME280;2025;48.260;16.432;2023-04-08T05:54:01;100127.41;;;0.81;90.73
4022;BME280;2025;48.260;16.432;2023-04-08T05:56:28;100134.19;;;0.84;90.98
4022;BME280;2025;48.260;16.432;2023-04-08T05:58:56;100127.50;;;0.80;91.01
4022;BME280;2025;48.260;16.432;2023-04-08T06:01:25;100135.59;;;0.75;91.13
4022;BME280;2025;48.260;16.432;2023-04-08T06:03:52;100135.47;;;0.77;91.37
4022;BME280;2025;48.260;16.432;2023-04-08T06:06:20;100148.53;;;0.75;91.19
4022;BME280;2025;48.260;16.432;2023-04-08T06:08:47;100143.97;;;0.79;91.37
4022;BME280;2025;48.260;16.432;2023-04-08T06:11:14;100141.47;;;0.92;90.97
4022;BME280;2025;48.260;16.432;2023-04-08T06:13:41;100143.84;;;0.95;90.90
4022;BME280;2025;48.260;16.432;2023-04-08T06:16:12;100143.75;;;0.96;90.83
4022;BME280;2025;48.260;16.432;2023-04-08T06:18:41;100141.34;;;0.93;91.32
4022;BME280;2025;48.260;16.432;2023-04-08T06:21:09;100141.78;;;1.00;90.77
4022;BME280;2025;48.260;16.432;2023-04-08T06:23:36;100152.72;;;1.05;90.73
4022;BME280;2025;48.260;16.432;2023-04-08T06:26:03;100155.78;;;0.97;90.49
4022;BME280;2025;48.260;16.432;2023-04-08T06:28:31;100150.31;;;1.02;90.73
4022;BME280;2025;48.260;16.432;2023-04-08T06:30:58;100153.84;;;1.01;90.96
4022;BME280;2025;48.260;16.432;2023-04-08T06:33:25;100157.16;;;1.03;90.39
4022;BME280;2025;48.260;16.432;2023-04-08T06:36:01;100159.84;;;1.01;90.70
4022;BME280;2025;48.260;16.432;2023-04-08T06:38:29;100155.50;;;1.02;91.05
4022;BME280;2025;48.260;16.432;2023-04-08T06:41:01;100165.69;;;1.05;91.42
4022;BME280;2025;48.260;16.432;2023-04-08T06:43:28;100165.81;;;1.16;91.54
4022;BME280;2025;48.260;16.432;2023-04-08T06:45:56;100155.63;;;1.13;91.38
4022;BME280;2025;48.260;16.432;2023-04-08T06:48:23;100167.56;;;1.16;91.46
4022;BME280;2025;48.260;16.432;2023-04-08T06:50:53;100161.78;;;1.25;91.38
4022;BME280;2025;48.260;16.432;2023-04-08T06:53:23;100167.81;;;1.25;90.64
4022;BME280;2025;48.260;16.432;2023-04-08T06:55:50;100169.38;;;1.28;91.14
4022;BME280;2025;48.260;16.432;2023-04-08T06:58:17;100169.28;;;1.30;91.01
4022;BME280;2025;48.260;16.432;2023-04-08T07:00:44;100171.34;;;1.24;90.98
4022;BME280;2025;48.260;16.432;2023-04-08T07:03:11;100165.78;;;1.31;91.02
4022;BME280;2025;48.260;16.432;2023-04-08T07:05:38;100172.31;;;1.36;90.87
4022;BME280;2025;48.260;16.432;2023-04-08T07:08:07;100179.50;;;1.45;90.58
4022;BME280;2025;48.260;16.432;2023-04-08T07:10:35;100182.84;;;1.47;90.64
4022;BME280;2025;48.260;16.432;2023-04-08T07:13:03;100174.31;;;1.58;90.88
4022;BME280;2025;48.260;16.432;2023-04-08T07:15:30;100182.00;;;1.60;90.87
4022;BME280;2025;48.260;16.432;2023-04-08T07:17:57;100178.06;;;1.67;91.14
4022;BME280;2025;48.260;16.432;2023-04-08T07:20:24;100176.25;;;1.82;90.84
4022;BME280;2025;48.260;16.432;2023-04-08T07:22:52;100182.13;;;1.84;90.50
4022;BME280;2025;48.260;16.432;2023-04-08T07:25:19;100191.19;;;1.91;90.11
4022;BME280;2025;48.260;16.432;2023-04-08T07:27:47;100195.84;;;1.86;90.11
4022;BME280;2025;48.260;16.432;2023-04-08T07:30:14;100198.56;;;1.84;90.12
4022;BME280;2025;48.260;16.432;2023-04-08T07:32:41;100200.97;;;1.87;90.39
4022;BME280;2025;48.260;16.432;2023-04-08T07:35:08;100193.69;;;1.93;90.08
4022;BME280;2025;48.260;16.432;2023-04-08T07:37:35;100200.75;;;1.90;90.50
4022;BME280;2025;48.260;16.432;2023-04-08T07:40:01;100207.19;;;1.98;90.57
4022;BME280;2025;48.260;16.432;2023-04-08T07:42:28;100209.59;;;2.01;90.07
4022;BME280;2025;48.260;16.432;2023-04-08T07:44:57;100216.84;;;1.96;89.87
4022;BME280;2025;48.260;16.432;2023-04-08T07:47:24;100210.31;;;1.90;89.66
4022;BME280;2025;48.260;16.432;2023-04-08T07:49:51;100219.75;;;1.91;89.58
4022;BME280;2025;48.260;16.432;2023-04-08T07:52:19;100224.66;;;1.96;89.69
4022;BME280;2025;48.260;16.432;2023-04-08T07:54:46;100218.19;;;1.88;89.68
4022;BME280;2025;48.260;16.432;2023-04-08T07:57:13;100221.22;;;1.95;90.07
4022;BME280;2025;48.260;16.432;2023-04-08T07:59:40;100237.66;;;2.08;90.59
4022;BME280;2025;48.260;16.432;2023-04-08T08:02:08;100231.31;;;2.13;90.01
4022;BME280;2025;48.260;16.432;2023-04-08T08:04:35;100232.06;;;2.15;89.83
4022;BME280;2025;48.260;16.432;2023-04-08T08:07:02;100234.44;;;2.18;89.96
4022;BME280;2025;48.260;16.432;2023-04-08T08:09:29;100234.03;;;2.24;89.53
4022;BME280;2025;48.260;16.432;2023-04-08T08:11:56;100235.47;;;2.28;89.61
4022;BME280;2025;48.260;16.432;2023-04-08T08:14:23;100234.75;;;2.26;89.61
4022;BME280;2025;48.260;16.432;2023-04-08T08:16:51;100232.38;;;2.36;89.72
4022;BME280;2025;48.260;16.432;2023-04-08T08:19:20;100235.56;;;2.39;90.02
4022;BME280;2025;48.260;16.432;2023-04-08T08:21:47;100229.84;;;2.60;89.81
4022;BME280;2025;48.260;16.432;2023-04-08T08:24:14;100242.03;;;2.59;89.42
4022;BME280;2025;48.260;16.432;2023-04-08T08:26:42;100250.00;;;2.56;89.04
4022;BME280;2025;48.260;16.432;2023-04-08T08:29:11;100254.91;;;2.61;88.50
4022;BME280;2025;48.260;16.432;2023-04-08T08:31:38;100249.28;;;2.54;88.39
4022;BME280;2025;48.260;16.432;2023-04-08T08:34:05;100255.34;;;2.55;88.69
4022;BME280;2025;48.260;16.432;2023-04-08T08:36:33;100254.50;;;2.41;88.56
4022;BME280;2025;48.260;16.432;2023-04-08T08:39:00;100259.28;;;2.47;89.38
4022;BME280;2025;48.260;16.432;2023-04-08T08:41:32;100261.69;;;2.50;88.59
4022;BME280;2025;48.260;16.432;2023-04-08T08:44:01;100259.69;;;2.54;89.00
4022;BME280;2025;48.260;16.432;2023-04-08T08:46:29;100262.19;;;2.56;88.96
4022;BME280;2025;48.260;16.432;2023-04-08T08:48:56;100266.44;;;2.69;88.50
4022;BME280;2025;48.260;16.432;2023-04-08T08:51:23;100267.06;;;2.73;87.99
4022;BME280;2025;48.260;16.432;2023-04-08T08:53:52;100270.00;;;2.68;88.13
4022;BME280;2025;48.260;16.432;2023-04-08T08:56:19;100273.09;;;2.73;87.75
4022;BME280;2025;48.260;16.432;2023-04-08T08:58:46;100276.63;;;2.72;88.04
4022;BME280;2025;48.260;16.432;2023-04-08T09:01:30;100279.13;;;2.74;87.63
4022;BME280;2025;48.260;16.432;2023-04-08T09:04:07;100289.84;;;2.69;87.83
4022;BME280;2025;48.260;16.432;2023-04-08T09:06:35;100285.78;;;2.78;88.71
4022;BME280;2025;48.260;16.432;2023-04-08T09:09:03;100288.81;;;2.85;87.94
4022;BME280;2025;48.260;16.432;2023-04-08T09:11:35;100295.66;;;2.86;88.00
4022;BME280;2025;48.260;16.432;2023-04-08T09:14:03;100296.19;;;2.78;87.88
4022;BME280;2025;48.260;16.432;2023-04-08T09:16:31;100299.53;;;2.80;87.81
4022;BME280;2025;48.260;16.432;2023-04-08T09:19:07;100307.00;;;2.85;87.66
4022;BME280;2025;48.260;16.432;2023-04-08T09:21:36;100310.44;;;2.85;87.87
4022;BME280;2025;48.260;16.432;2023-04-08T09:24:06;100316.06;;;2.79;88.05
4022;BME280;2025;48.260;16.432;2023-04-08T09:26:34;100307.75;;;2.87;88.21
4022;BME280;2025;48.260;16.432;2023-04-08T09:29:03;100312.63;;;2.91;87.17
4022;BME280;2025;48.260;16.432;2023-04-08T09:31:32;100316.38;;;2.87;87.07
4022;BME280;2025;48.260;16.432;2023-04-08T09:34:08;100317.41;;;2.72;87.89
4022;BME280;2025;48.260;16.432;2023-04-08T09:36:35;100320.63;;;2.63;88.31
4022;BME280;2025;48.260;16.432;2023-04-08T09:39:02;100326.69;;;2.76;88.20
4022;BME280;2025;48.260;16.432;2023-04-08T09:41:33;100332.63;;;2.78;88.26
4022;BME280;2025;48.260;16.432;2023-04-08T09:44:02;100324.97;;;3.01;88.05
4022;BME280;2025;48.260;16.432;2023-04-08T09:46:32;100323.09;;;3.03;87.58
4022;BME280;2025;48.260;16.432;2023-04-08T09:49:04;100334.56;;;3.00;87.15
4022;BME280;2025;48.260;16.432;2023-04-08T09:51:36;100329.16;;;3.03;87.63
4022;BME280;2025;48.260;16.432;2023-04-08T09:54:11;100331.50;;;3.19;86.77
4022;BME280;2025;48.260;16.432;2023-04-08T09:56:46;100328.38;;;3.27;87.02
4022;BME280;2025;48.260;16.432;2023-04-08T09:59:16;100327.91;;;3.33;86.50
4022;BME280;2025;48.260;16.432;2023-04-08T10:01:51;100341.34;;;3.40;86.43
4022;BME280;2025;48.260;16.432;2023-04-08T10:04:20;100338.97;;;3.36;86.40
4022;BME280;2025;48.260;16.432;2023-04-08T10:06:51;100332.72;;;3.39;86.95
4022;BME280;2025;48.260;16.432;2023-04-08T10:09:20;100333.19;;;3.44;87.00
4022;BME280;2025;48.260;16.432;2023-04-08T10:11:49;100335.78;;;3.57;86.02
4022;BME280;2025;48.260;16.432;2023-04-08T10:14:16;100335.56;;;3.60;84.50
4022;BME280;2025;48.260;16.432;2023-04-08T10:16:43;100334.22;;;3.54;84.12
4022;BME280;2025;48.260;16.432;2023-04-08T10:19:37;100335.25;;;3.52;83.40
4022;BME280;2025;48.260;16.432;2023-04-08T10:25:27;100332.06;;;3.35;83.82
4022;BME280;2025;48.260;16.432;2023-04-08T10:27:57;100339.78;;;3.37;83.97
4022;BME280;2025;48.260;16.432;2023-04-08T10:30:40;100338.50;;;3.43;84.74
4022;BME280;2025;48.260;16.432;2023-04-08T10:33:12;100341.84;;;3.45;84.04
4022;BME280;2025;48.260;16.432;2023-04-08T10:35:41;100343.19;;;3.50;83.42
4022;BME280;2025;48.260;16.432;2023-04-08T10:38:11;100343.19;;;3.50;84.67
4022;BME280;2025;48.260;16.432;2023-04-08T10:40:39;100343.63;;;3.44;82.83
4022;BME280;2025;48.260;16.432;2023-04-08T10:43:09;100341.13;;;3.43;84.76
4022;BME280;2025;48.260;16.432;2023-04-08T10:45:36;100342.41;;;3.61;84.90
4022;BME280;2025;48.260;16.432;2023-04-08T10:48:14;100343.91;;;3.76;84.06
4022;BME280;2025;48.260;16.432;2023-04-08T10:50:42;100346.63;;;3.75;83.44
4022;BME280;2025;48.260;16.432;2023-04-08T10:53:09;100350.28;;;3.72;83.04
4022;BME280;2025;48.260;16.432;2023-04-08T10:55:36;100349.03;;;3.78;84.26
4022;BME280;2025;48.260;16.432;2023-04-08T10:58:05;100349.84;;;3.78;83.87
4022;BME280;2025;48.260;16.432;2023-04-08T11:00:34;100356.31;;;3.73;83.93
4022;BME280;2025;48.260;16.432;2023-04-08T11:03:02;100353.38;;;3.77;83.73
4022;BME280;2025;48.260;16.432;2023-04-08T11:05:30;100349.03;;;3.78;83.71
4022;BME280;2025;48.260;16.432;2023-04-08T11:07:57;100356.19;;;3.87;83.93
4022;BME280;2025;48.260;16.432;2023-04-08T11:10:25;100360.78;;;3.84;84.64
4022;BME280;2025;48.260;16.432;2023-04-08T11:12:53;100348.84;;;3.92;83.96
4022;BME280;2025;48.260;16.432;2023-04-08T11:15:21;100363.03;;;3.88;84.18
4022;BME280;2025;48.260;16.432;2023-04-08T11:17:50;100362.22;;;3.88;84.09
4022;BME280;2025;48.260;16.432;2023-04-08T11:20:18;100358.56;;;3.90;83.81
4022;BME280;2025;48.260;16.432;2023-04-08T11:22:46;100360.22;;;3.91;84.25
4022;BME280;2025;48.260;16.432;2023-04-08T11:25:13;100357.59;;;3.91;84.25
4022;BME280;2025;48.260;16.432;2023-04-08T11:27:41;100366.47;;;3.89;84.04
4022;BME280;2025;48.260;16.432;2023-04-08T11:30:10;100367.88;;;3.82;84.02
4022;BME280;2025;48.260;16.432;2023-04-08T11:32:38;100363.03;;;3.88;84.26
4022;BME280;2025;48.260;16.432;2023-04-08T11:35:07;100368.66;;;3.95;84.51
4022;BME280;2025;48.260;16.432;2023-04-08T11:37:37;100360.75;;;4.08;83.98
4022;BME280;2025;48.260;16.432;2023-04-08T11:40:09;100364.66;;;4.02;83.48
4022;BME280;2025;48.260;16.432;2023-04-08T11:42:37;100365.75;;;4.11;83.84
4022;BME280;2025;48.260;16.432;2023-04-08T11:45:10;100361.13;;;4.14;83.15
4022;BME280;2025;48.260;16.432;2023-04-08T11:47:38;100363.81;;;4.01;82.68
4022;BME280;2025;48.260;16.432;2023-04-08T11:50:07;100370.81;;;4.01;83.22
4022;BME280;2025;48.260;16.432;2023-04-08T11:52:42;100368.09;;;4.03;82.22
4022;BME280;2025;48.260;16.432;2023-04-08T11:55:09;100363.69;;;4.03;82.64
4022;BME280;2025;48.260;16.432;2023-04-08T11:57:36;100369.91;;;4.13;83.68
4022;BME280;2025;48.260;16.432;2023-04-08T12:00:04;100365.56;;;4.25;82.79
4022;BME280;2025;48.260;16.432;2023-04-08T12:02:31;100368.28;;;4.23;81.11
4022;BME280;2025;48.260;16.432;2023-04-08T12:04:58;100360.97;;;4.40;80.99
4022;BME280;2025;48.260;16.432;2023-04-08T12:07:27;100351.38;;;4.40;78.91
4022;BME280;2025;48.260;16.432;2023-04-08T12:09:54;100359.00;;;4.43;79.18
4022;BME280;2025;48.260;16.432;2023-04-08T12:12:21;100359.84;;;4.55;78.71
4022;BME280;2025;48.260;16.432;2023-04-08T12:14:48;100357.84;;;4.70;78.31
4022;BME280;2025;48.260;16.432;2023-04-08T12:17:15;100355.84;;;4.74;77.95
4022;BME280;2025;48.260;16.432;2023-04-08T12:19:42;100362.25;;;4.81;77.53
4022;BME280;2025;48.260;16.432;2023-04-08T12:22:08;100358.69;;;4.82;79.77
4022;BME280;2025;48.260;16.432;2023-04-08T12:24:37;100363.91;;;4.93;75.81
4022;BME280;2025;48.260;16.432;2023-04-08T12:27:04;100368.88;;;4.96;79.04
4022;BME280;2025;48.260;16.432;2023-04-08T12:29:31;100368.19;;;5.17;78.61
4022;BME280;2025;48.260;16.432;2023-04-08T12:31:58;100364.59;;;5.40;77.00
4022;BME280;2025;48.260;16.432;2023-04-08T12:34:25;100362.56;;;5.66;76.33
4022;BME280;2025;48.260;16.432;2023-04-08T12:36:52;100360.84;;;5.77;75.75
4022;BME280;2025;48.260;16.432;2023-04-08T12:39:20;100358.22;;;5.88;75.98
4022;BME280;2025;48.260;16.432;2023-04-08T12:41:48;100367.25;;;5.95;74.71
4022;BME280;2025;48.260;16.432;2023-04-08T12:44:15;100361.28;;;5.93;74.99
4022;BME280;2025;48.260;16.432;2023-04-08T12:46:42;100367.25;;;5.95;72.24
4022;BME280;2025;48.260;16.432;2023-04-08T12:49:09;100361.91;;;5.85;72.18
4022;BME280;2025;48.260;16.432;2023-04-08T12:51:36;100364.25;;;5.88;72.49
4022;BME280;2025;48.260;16.432;2023-04-08T12:54:04;100364.97;;;5.90;73.74
4022;BME280;2025;48.260;16.432;2023-04-08T12:56:31;100366.63;;;6.03;74.46
4022;BME280;2025;48.260;16.432;2023-04-08T12:59:00;100370.44;;;5.87;72.14
4022;BME280;2025;48.260;16.432;2023-04-08T13:01:27;100372.03;;;5.67;71.76
4022;BME280;2025;48.260;16.432;2023-04-08T13:03:55;100366.47;;;5.49;73.05
4022;BME280;2025;48.260;16.432;2023-04-08T13:06:22;100367.00;;;5.43;72.53
4022;BME280;2025;48.260;16.432;2023-04-08T13:08:48;100368.38;;;5.47;73.74
4022;BME280;2025;48.260;16.432;2023-04-08T13:11:15;100370.78;;;5.51;72.36
4022;BME280;2025;48.260;16.432;2023-04-08T13:13:43;100365.31;;;5.42;72.33
4022;BME280;2025;48.260;16.432;2023-04-08T13:16:12;100368.63;;;5.44;73.55
4022;BME280;2025;48.260;16.432;2023-04-08T13:18:40;100364.50;;;5.42;73.79
4022;BME280;2025;48.260;16.432;2023-04-08T13:21:07;100365.56;;;5.39;73.14